Airport View

Enter AWOS ICAO identifier for current METAR.

ex. KFNL

KUES 210055Z AUTO 13004KT 10SM CLR 21/18 A3011 RMK AO2

21 Sep 2019 00:57

Frequency: 118.875

Phone: 262-521-5226

Other Area AWOS: KMWC - K57C - KMKE - KBUU

TAF KUES 202325Z 2100/2124 VRB04KT P6SM SCT150 FM211000 18005KT P6SM BKN080 FM211500 19013G24KT 5SM -TSRA BKN025CB FM212000 21013G24KT P6SM -SHRA VCTS OVC020CB